createdAt,value
2023-03-11T00:00:47.520Z,0.00
2023-03-11T00:03:17.870Z,0.00
2023-03-11T00:05:46.987Z,0.00
2023-03-11T00:08:17.624Z,0.00
2023-03-11T00:10:46.476Z,0.00
2023-03-11T00:13:15.935Z,0.08
2023-03-11T00:15:47.066Z,0.00
2023-03-11T00:18:14.690Z,0.00
2023-03-11T00:20:46.049Z,0.00
2023-03-11T00:23:15.493Z,0.00
2023-03-11T00:25:44.810Z,0.00
2023-03-11T00:28:13.397Z,0.00
2023-03-11T00:30:42.706Z,0.00
2023-03-11T00:33:11.916Z,0.00
2023-03-11T00:35:41.452Z,0.00
2023-03-11T00:38:13.210Z,0.00
2023-03-11T00:40:40.134Z,0.00
2023-03-11T00:43:06.844Z,0.00
2023-03-11T00:45:36.184Z,0.00
2023-03-11T00:48:03.381Z,0.00
2023-03-11T00:50:34.440Z,0.00
2023-03-11T00:53:02.542Z,0.00
2023-03-11T00:55:33.171Z,0.00
2023-03-11T00:58:05.717Z,0.00
2023-03-11T01:00:40.750Z,0.00
2023-03-11T01:03:07.569Z,0.00
2023-03-11T01:05:35.346Z,0.00
2023-03-11T01:08:04.217Z,0.00
2023-03-11T01:10:33.079Z,0.00
2023-03-11T01:12:59.839Z,0.00
2023-03-11T01:15:37.074Z,0.00
2023-03-11T01:18:05.876Z,0.00
2023-03-11T01:20:34.893Z,0.00
2023-03-11T01:23:01.594Z,0.00
2023-03-11T01:25:28.834Z,0.00
2023-03-11T01:27:58.190Z,0.00
2023-03-11T01:30:25.867Z,0.00
2023-03-11T01:32:54.655Z,0.00
2023-03-11T01:35:24.459Z,0.00
2023-03-11T01:37:52.899Z,0.00
2023-03-11T01:40:26.963Z,0.00
2023-03-11T01:42:53.968Z,0.00
2023-03-11T01:45:38.896Z,0.00
2023-03-11T01:48:09.445Z,0.00
2023-03-11T01:50:45.041Z,0.00
2023-03-11T01:53:13.845Z,0.00
2023-03-11T01:55:41.770Z,0.00
2023-03-11T01:58:14.359Z,0.00
2023-03-11T02:00:42.834Z,0.00
2023-03-11T02:03:19.474Z,0.00
2023-03-11T02:05:47.586Z,0.00
2023-03-11T02:08:14.305Z,0.00
2023-03-11T02:10:42.775Z,0.00
2023-03-11T02:13:11.167Z,0.00
2023-03-11T02:15:40.016Z,0.00
2023-03-11T02:18:08.283Z,0.00
2023-03-11T02:21:09.933Z,0.00
2023-03-11T02:24:05.577Z,0.00
2023-03-11T02:26:55.932Z,0.00
2023-03-11T02:29:26.461Z,0.00
2023-03-11T02:31:55.812Z,0.00
2023-03-11T02:34:35.518Z,0.10
2023-03-11T02:37:07.361Z,0.00
2023-03-11T02:39:36.401Z,0.00
2023-03-11T02:42:32.548Z,0.00
2023-03-11T02:45:04.478Z,0.00
2023-03-11T02:47:31.446Z,0.00
2023-03-11T02:49:58.155Z,0.00
2023-03-11T02:52:29.370Z,0.00
2023-03-11T02:54:55.995Z,0.00
2023-03-11T02:57:22.712Z,0.00
2023-03-11T02:59:49.373Z,0.00
2023-03-11T03:02:16.952Z,0.00
2023-03-11T03:04:44.396Z,0.00
2023-03-11T03:07:11.806Z,0.00
2023-03-11T03:09:38.728Z,0.00
2023-03-11T03:12:06.419Z,0.00
2023-03-11T03:14:34.823Z,0.00
2023-03-11T03:17:01.768Z,0.00
2023-03-11T03:19:28.610Z,0.00
2023-03-11T03:21:55.534Z,0.00
2023-03-11T03:24:23.455Z,0.00
2023-03-11T03:26:50.171Z,0.00
2023-03-11T03:29:16.966Z,0.00
2023-03-11T03:31:44.496Z,0.00
2023-03-11T03:34:11.344Z,0.00
2023-03-11T03:36:38.278Z,0.00
2023-03-11T03:39:06.127Z,0.00
2023-03-11T03:41:36.351Z,0.00
2023-03-11T03:44:04.288Z,0.00
2023-03-11T03:46:32.509Z,0.00
2023-03-11T03:48:59.743Z,0.00
2023-03-11T03:51:27.905Z,0.00
2023-03-11T03:54:09.068Z,0.00
2023-03-11T03:56:35.916Z,0.00
2023-03-11T03:59:02.746Z,0.00
2023-03-11T04:01:36.495Z,0.00
2023-03-11T04:04:03.596Z,0.00
2023-03-11T04:06:30.390Z,0.00
2023-03-11T04:09:01.091Z,0.00
2023-03-11T04:11:32.934Z,0.15
2023-03-11T04:14:02.444Z,0.00
2023-03-11T04:16:30.010Z,0.00
2023-03-11T04:19:10.219Z,0.00
2023-03-11T04:21:37.061Z,0.00
2023-03-11T04:24:04.669Z,0.00
2023-03-11T04:26:35.119Z,0.00
2023-03-11T04:29:02.846Z,0.00
2023-03-11T04:31:33.524Z,0.00
2023-03-11T04:34:03.654Z,0.00
2023-03-11T04:36:30.408Z,0.00
2023-03-11T04:39:02.821Z,0.00
2023-03-11T04:44:00.519Z,0.10
2023-03-11T04:46:27.464Z,0.00
2023-03-11T04:48:54.496Z,0.00
2023-03-11T04:51:21.452Z,0.55
2023-03-11T04:53:48.190Z,0.00
2023-03-11T04:56:14.910Z,0.00
2023-03-11T04:58:42.170Z,0.00
2023-03-11T05:01:09.097Z,0.00
2023-03-11T05:03:36.055Z,0.00
2023-03-11T05:06:03.026Z,0.00
2023-03-11T05:08:30.187Z,0.00
2023-03-11T05:10:56.960Z,0.00
2023-03-11T05:13:23.822Z,0.00
2023-03-11T05:15:52.185Z,0.00
2023-03-11T05:18:18.935Z,0.00
2023-03-11T05:20:48.310Z,0.00
2023-03-11T05:23:15.914Z,0.00
2023-03-11T05:25:42.805Z,0.00
2023-03-11T05:28:10.429Z,0.00
2023-03-11T05:30:41.548Z,0.00
2023-03-11T05:33:08.816Z,0.00
2023-03-11T05:35:36.036Z,0.00
2023-03-11T05:38:02.995Z,0.00
2023-03-11T05:40:30.493Z,0.00
2023-03-11T05:42:57.192Z,0.00
2023-03-11T05:45:25.427Z,0.00
2023-03-11T05:47:53.663Z,0.00
2023-03-11T05:50:20.789Z,0.00
2023-03-11T05:52:49.129Z,0.00
2023-03-11T05:55:16.193Z,0.00
2023-03-11T05:57:44.992Z,0.00
2023-03-11T06:00:12.447Z,0.00
2023-03-11T06:02:46.708Z,0.00
2023-03-11T06:05:16.985Z,0.00
2023-03-11T06:07:45.717Z,0.00
2023-03-11T06:10:13.170Z,0.00
2023-03-11T06:12:40.941Z,0.00
2023-03-11T06:15:19.100Z,0.00
2023-03-11T06:17:46.010Z,0.00
2023-03-11T06:20:13.112Z,0.00
2023-03-11T06:22:40.614Z,0.00
2023-03-11T06:25:08.794Z,0.00
2023-03-11T06:27:37.236Z,0.00
2023-03-11T06:30:05.830Z,0.00
2023-03-11T06:32:37.688Z,0.00
2023-03-11T06:35:05.483Z,0.00
2023-03-11T06:37:37.293Z,0.00
2023-03-11T06:40:09.601Z,0.00
2023-03-11T06:42:36.297Z,0.00
2023-03-11T06:45:04.494Z,0.00
2023-03-11T06:47:31.770Z,0.00
2023-03-11T06:49:59.667Z,0.00
2023-03-11T06:52:27.110Z,0.00
2023-03-11T06:54:55.611Z,0.00
2023-03-11T06:57:22.526Z,0.00
2023-03-11T06:59:51.411Z,0.00
2023-03-11T07:02:18.891Z,0.00
2023-03-11T07:04:49.543Z,0.00
2023-03-11T07:07:17.260Z,0.00
2023-03-11T07:09:44.322Z,0.00
2023-03-11T07:12:14.861Z,0.00
2023-03-11T07:14:41.699Z,0.00
2023-03-11T07:17:08.366Z,0.00
2023-03-11T07:19:41.278Z,0.00
2023-03-11T07:22:07.958Z,0.00
2023-03-11T07:24:34.743Z,0.00
2023-03-11T07:27:01.631Z,0.00
2023-03-11T07:29:28.294Z,0.00
2023-03-11T07:31:55.189Z,0.00
2023-03-11T07:34:21.888Z,0.00
2023-03-11T07:36:48.567Z,0.00
2023-03-11T07:39:18.901Z,0.00
2023-03-11T07:41:46.702Z,0.00
2023-03-11T07:44:15.815Z,0.00
2023-03-11T07:46:42.933Z,0.00
2023-03-11T07:49:09.777Z,0.00
2023-03-11T07:51:39.450Z,0.00
2023-03-11T07:54:06.518Z,0.00
2023-03-11T07:56:35.427Z,0.00
2023-03-11T07:59:04.118Z,0.00
2023-03-11T08:01:41.183Z,0.00
2023-03-11T08:04:14.330Z,0.00
2023-03-11T08:06:44.053Z,0.00
2023-03-11T08:09:11.095Z,0.00
2023-03-11T08:11:38.257Z,0.00
2023-03-11T08:14:05.800Z,0.00
2023-03-11T08:16:33.005Z,0.00
2023-03-11T08:18:59.777Z,0.77
2023-03-11T08:21:29.780Z,0.43
2023-03-11T08:24:01.892Z,1.13
2023-03-11T08:26:29.580Z,1.65
2023-03-11T08:28:57.852Z,1.90
2023-03-11T08:31:31.915Z,2.45
2023-03-11T08:34:06.591Z,1.60
2023-03-11T08:36:33.572Z,1.95
2023-03-11T08:39:00.707Z,1.52
2023-03-11T08:41:28.086Z,1.50
2023-03-11T08:43:54.893Z,1.20
2023-03-11T08:46:29.478Z,1.52
2023-03-11T08:49:00.791Z,1.35
2023-03-11T08:51:31.237Z,1.48
2023-03-11T08:53:58.808Z,0.93
2023-03-11T08:56:25.794Z,2.30
2023-03-11T08:58:52.728Z,1.17
2023-03-11T09:01:20.279Z,1.27
2023-03-11T09:03:47.392Z,1.40
2023-03-11T09:06:16.458Z,0.70
2023-03-11T09:08:44.989Z,1.05
2023-03-11T09:11:13.518Z,1.05
2023-03-11T09:13:41.586Z,0.77
2023-03-11T09:16:14.881Z,1.67
2023-03-11T09:18:42.217Z,1.10
2023-03-11T09:21:10.117Z,1.02
2023-03-11T09:23:37.080Z,1.10
2023-03-11T09:26:03.948Z,0.75
2023-03-11T09:28:30.679Z,0.75
2023-03-11T09:30:57.715Z,0.65
2023-03-11T09:33:25.059Z,0.98
2023-03-11T09:35:51.907Z,0.75
2023-03-11T09:38:18.640Z,0.90
2023-03-11T09:41:23.950Z,0.80
2023-03-11T09:44:22.918Z,0.45
2023-03-11T09:47:16.787Z,0.50
2023-03-11T09:50:28.862Z,1.15
2023-03-11T09:53:02.474Z,0.60
2023-03-11T09:55:58.626Z,0.75
2023-03-11T09:58:45.703Z,0.73
2023-03-11T10:01:26.220Z,0.90
2023-03-11T10:03:56.606Z,0.60
2023-03-11T10:06:30.206Z,0.57
2023-03-11T10:09:12.200Z,0.80
2023-03-11T10:12:28.224Z,0.70
2023-03-11T10:15:09.452Z,0.40
2023-03-11T10:18:10.782Z,0.50
2023-03-11T10:20:38.068Z,0.52
2023-03-11T10:23:40.887Z,0.63
2023-03-11T10:26:15.077Z,0.40
2023-03-11T10:29:26.268Z,0.55
2023-03-11T10:32:26.310Z,0.90
2023-03-11T10:35:16.589Z,1.33
2023-03-11T10:38:20.366Z,0.77
2023-03-11T10:40:51.954Z,0.47
2023-03-11T10:43:44.340Z,0.80
2023-03-11T10:46:21.079Z,1.45
2023-03-11T10:48:47.767Z,1.08
2023-03-11T10:51:41.835Z,0.90
2023-03-11T10:54:08.608Z,0.90
2023-03-11T10:56:41.426Z,0.57
2023-03-11T10:59:47.725Z,0.73
2023-03-11T11:02:33.833Z,0.60
2023-03-11T11:07:50.610Z,0.85
2023-03-11T11:10:26.973Z,0.65
2023-03-11T11:12:56.570Z,0.70
2023-03-11T11:15:28.828Z,0.70
2023-03-11T11:18:00.270Z,1.60
2023-03-11T11:20:29.322Z,1.17
2023-03-11T11:23:00.696Z,0.73
2023-03-11T11:25:33.005Z,0.80
2023-03-11T11:28:20.943Z,0.80
2023-03-11T11:31:02.101Z,0.85
2023-03-11T11:33:39.323Z,0.80
2023-03-11T11:36:14.227Z,0.60
2023-03-11T11:38:41.020Z,1.00
2023-03-11T11:41:15.151Z,1.08
2023-03-11T11:43:51.510Z,0.80
2023-03-11T11:46:51.282Z,1.00
2023-03-11T11:49:29.450Z,0.73
2023-03-11T11:52:19.560Z,0.90
2023-03-11T11:55:20.440Z,0.63
2023-03-11T11:57:47.906Z,0.70
2023-03-11T12:00:22.077Z,0.80
2023-03-11T12:03:32.550Z,1.52
2023-03-11T12:06:06.094Z,0.90
2023-03-11T12:09:30.332Z,0.90
2023-03-11T12:12:11.856Z,0.82
2023-03-11T12:15:18.893Z,1.00
2023-03-11T12:20:31.019Z,0.73
2023-03-11T12:23:50.695Z,0.73
2023-03-11T12:26:24.517Z,0.73
2023-03-11T12:28:51.328Z,0.85
2023-03-11T12:31:18.920Z,0.52
2023-03-11T12:33:55.567Z,1.00
2023-03-11T12:36:34.180Z,0.70
2023-03-11T12:39:06.096Z,1.40
2023-03-11T12:41:41.210Z,0.80
2023-03-11T12:44:29.109Z,0.95
2023-03-11T12:46:58.715Z,0.70
2023-03-11T12:49:33.657Z,0.88
2023-03-11T12:52:16.447Z,0.70
2023-03-11T12:55:07.817Z,0.70
2023-03-11T12:57:40.717Z,0.73
2023-03-11T13:00:47.652Z,0.82
2023-03-11T13:03:32.587Z,0.85
2023-03-11T13:06:32.571Z,0.50
2023-03-11T13:09:00.692Z,0.57
2023-03-11T13:11:33.426Z,0.80
2023-03-11T13:14:16.328Z,0.85
2023-03-11T13:16:45.493Z,1.70
2023-03-11T13:19:34.596Z,0.80
2023-03-11T13:22:04.252Z,0.73
2023-03-11T13:24:30.881Z,0.90
2023-03-11T13:27:02.212Z,1.05
2023-03-11T13:29:56.092Z,0.98
2023-03-11T13:33:09.432Z,0.80
2023-03-11T13:36:00.495Z,1.15
2023-03-11T13:38:56.006Z,0.82
2023-03-11T13:41:33.081Z,0.80
2023-03-11T13:44:13.658Z,0.70
2023-03-11T13:46:44.702Z,1.02
2023-03-11T13:49:35.374Z,0.65
2023-03-11T13:52:07.120Z,0.60
2023-03-11T13:54:47.716Z,0.98
2023-03-11T13:57:32.861Z,0.77
2023-03-11T14:00:17.645Z,1.48
2023-03-11T14:02:54.224Z,0.90
2023-03-11T14:05:32.281Z,0.70
2023-03-11T14:08:27.242Z,0.90
2023-03-11T14:11:04.547Z,0.90
2023-03-11T14:13:38.603Z,0.70
2023-03-11T14:16:30.502Z,1.23
2023-03-11T14:19:12.318Z,0.90
2023-03-11T14:21:43.533Z,0.70
2023-03-11T14:24:23.258Z,0.88
2023-03-11T14:26:56.038Z,0.80
2023-03-11T14:29:43.375Z,1.02
2023-03-11T14:32:37.421Z,0.80
2023-03-11T14:35:20.931Z,0.90
2023-03-11T14:37:48.751Z,1.10
2023-03-11T14:40:41.878Z,0.93
2023-03-11T14:43:11.501Z,1.88
2023-03-11T14:45:41.716Z,2.03
2023-03-11T14:48:38.795Z,0.90
2023-03-11T14:51:17.719Z,1.00
2023-03-11T14:54:06.024Z,0.80
2023-03-11T14:56:37.140Z,0.75
2023-03-11T14:59:14.101Z,1.20
2023-03-11T15:01:43.930Z,1.70
2023-03-11T15:04:28.562Z,0.80
2023-03-11T15:06:55.912Z,0.90
2023-03-11T15:09:24.957Z,0.98
2023-03-11T15:12:00.465Z,0.80
2023-03-11T15:14:32.491Z,1.10
2023-03-11T15:17:37.078Z,1.40
2023-03-11T15:22:58.208Z,0.85
2023-03-11T15:25:24.957Z,0.77
2023-03-11T15:27:51.670Z,1.83
2023-03-11T15:30:28.970Z,1.02
2023-03-11T15:32:57.697Z,0.85
2023-03-11T15:35:28.436Z,0.80
2023-03-11T15:38:25.373Z,0.93
2023-03-11T15:41:02.012Z,0.95
2023-03-11T15:43:43.571Z,1.33
2023-03-11T15:46:10.633Z,0.80
2023-03-11T15:48:37.351Z,0.98
2023-03-11T15:51:04.295Z,1.17
2023-03-11T15:53:31.152Z,1.00
2023-03-11T15:56:07.769Z,0.77
2023-03-11T15:58:37.079Z,1.20
2023-03-11T16:01:04.053Z,1.05
2023-03-11T16:03:31.571Z,0.60
2023-03-11T16:05:58.482Z,1.02
2023-03-11T16:08:25.172Z,0.82
2023-03-11T16:10:51.951Z,1.00
2023-03-11T16:13:18.616Z,0.90
2023-03-11T16:15:46.972Z,1.42
2023-03-11T16:18:13.871Z,1.05
2023-03-11T16:20:53.071Z,1.33
2023-03-11T16:23:26.360Z,1.33
2023-03-11T16:26:00.817Z,0.88
2023-03-11T16:28:27.743Z,0.90
2023-03-11T16:30:55.577Z,1.30
2023-03-11T16:33:22.447Z,1.95
2023-03-11T16:35:49.191Z,0.70
2023-03-11T16:38:17.662Z,0.80
2023-03-11T16:40:44.335Z,1.00
2023-03-11T16:43:13.597Z,0.88
2023-03-11T16:45:40.322Z,0.88
2023-03-11T16:48:07.354Z,0.80
2023-03-11T16:50:36.254Z,0.70
2023-03-11T16:53:04.961Z,0.80
2023-03-11T16:55:31.770Z,0.95
2023-03-11T16:57:58.593Z,1.08
2023-03-11T17:00:25.726Z,1.02
2023-03-11T17:02:52.496Z,0.80
2023-03-11T17:05:19.348Z,1.15
2023-03-11T17:07:46.121Z,1.20
2023-03-11T17:10:13.072Z,2.20
2023-03-11T17:12:39.906Z,1.02
2023-03-11T17:15:07.754Z,0.82
2023-03-11T17:17:34.515Z,0.55
2023-03-11T17:20:01.170Z,0.93
2023-03-11T17:22:27.857Z,0.88
2023-03-11T17:24:54.660Z,1.17
2023-03-11T17:27:21.421Z,1.23
2023-03-11T17:29:48.120Z,1.63
2023-03-11T17:32:17.601Z,0.90
2023-03-11T17:34:44.583Z,0.90
2023-03-11T17:37:11.419Z,1.25
2023-03-11T17:39:38.170Z,1.67
2023-03-11T17:42:05.274Z,1.23
2023-03-11T17:44:48.508Z,1.10
2023-03-11T17:47:19.628Z,1.50
2023-03-11T17:49:47.777Z,1.17
2023-03-11T17:52:14.688Z,0.80
2023-03-11T17:54:41.380Z,1.25
2023-03-11T17:57:08.148Z,1.42
2023-03-11T17:59:34.900Z,1.05
2023-03-11T18:02:02.382Z,1.40
2023-03-11T18:04:29.159Z,1.73
2023-03-11T18:06:56.440Z,2.70
2023-03-11T18:09:23.222Z,1.15
2023-03-11T18:11:49.976Z,1.85
2023-03-11T18:14:16.904Z,1.75
2023-03-11T18:16:43.648Z,1.70
2023-03-11T18:19:10.401Z,2.15
2023-03-11T18:21:38.193Z,1.77
2023-03-11T18:24:05.571Z,2.10
2023-03-11T18:26:32.402Z,2.00
2023-03-11T18:29:00.848Z,2.00
2023-03-11T18:31:29.537Z,2.30
2023-03-11T18:34:03.631Z,2.83
2023-03-11T18:36:34.118Z,2.75
2023-03-11T18:39:02.331Z,2.47
2023-03-11T18:41:33.665Z,2.38
2023-03-11T18:44:01.503Z,3.78
2023-03-11T18:46:33.658Z,2.63
2023-03-11T18:49:02.687Z,3.72
2023-03-11T18:51:32.113Z,3.03
2023-03-11T18:54:00.077Z,2.75
2023-03-11T18:56:27.312Z,1.77
2023-03-11T18:58:55.688Z,2.38
2023-03-11T19:01:22.555Z,2.75
2023-03-11T19:03:53.000Z,3.25
2023-03-11T19:06:21.435Z,3.40
2023-03-11T19:08:49.291Z,3.28
2023-03-11T19:11:20.037Z,2.95
2023-03-11T19:13:48.070Z,3.70
2023-03-11T19:16:19.393Z,3.15
2023-03-11T19:18:46.632Z,3.42
2023-03-11T19:21:15.281Z,3.60
2023-03-11T19:23:42.483Z,3.72
2023-03-11T19:26:09.519Z,4.10
2023-03-11T19:28:36.844Z,3.53
2023-03-11T19:31:05.067Z,3.20
2023-03-11T19:33:32.534Z,2.80
2023-03-11T19:36:03.133Z,3.75
2023-03-11T19:38:30.340Z,3.42
2023-03-11T19:41:09.242Z,3.17
2023-03-11T19:43:36.932Z,3.58
2023-03-11T19:46:05.390Z,3.58
2023-03-11T19:48:32.294Z,4.28
2023-03-11T19:50:59.403Z,3.30
2023-03-11T19:53:27.212Z,3.25
2023-03-11T19:55:56.904Z,3.53
2023-03-11T19:58:28.003Z,3.45
2023-03-11T20:00:58.248Z,3.50
2023-03-11T20:03:25.586Z,3.78
2023-03-11T20:05:55.757Z,3.42
2023-03-11T20:08:24.832Z,4.25
2023-03-11T20:10:53.228Z,3.70
2023-03-11T20:13:22.423Z,3.67
2023-03-11T20:15:49.995Z,4.13
2023-03-11T20:18:17.951Z,4.03
2023-03-11T20:20:46.817Z,4.80
2023-03-11T20:23:13.968Z,4.15
2023-03-11T20:25:41.926Z,5.38
2023-03-11T20:28:09.263Z,6.20
2023-03-11T20:30:38.957Z,8.55
2023-03-11T20:33:07.140Z,7.03
2023-03-11T20:35:34.096Z,7.05
2023-03-11T20:38:02.714Z,8.30
2023-03-11T20:40:29.695Z,8.00
2023-03-11T20:42:56.549Z,6.82
2023-03-11T20:45:23.326Z,7.07
2023-03-11T20:47:53.537Z,7.43
2023-03-11T20:50:21.764Z,6.22
2023-03-11T20:52:48.777Z,6.88
2023-03-11T20:55:15.593Z,6.90
2023-03-11T20:57:42.430Z,5.97
2023-03-11T21:00:13.212Z,5.93
2023-03-11T21:02:41.609Z,7.80
2023-03-11T21:05:09.845Z,7.80
2023-03-11T21:07:36.569Z,7.18
2023-03-11T21:10:10.416Z,7.65
2023-03-11T21:12:37.220Z,7.07
2023-03-11T21:15:05.414Z,6.93
2023-03-11T21:17:34.033Z,7.97
2023-03-11T21:20:01.037Z,6.72
2023-03-11T21:22:28.638Z,6.88
2023-03-11T21:24:55.792Z,7.53
2023-03-11T21:27:27.239Z,7.82
2023-03-11T21:29:55.775Z,7.88
2023-03-11T21:32:23.714Z,7.38
2023-03-11T21:34:50.905Z,7.63
2023-03-11T21:37:17.789Z,7.80
2023-03-11T21:39:44.483Z,8.40
2023-03-11T21:42:11.442Z,7.45
2023-03-11T21:44:38.167Z,7.40
2023-03-11T21:47:05.665Z,7.50
2023-03-11T21:49:32.447Z,7.95
2023-03-11T21:52:01.718Z,6.38
2023-03-11T21:54:29.064Z,6.28
2023-03-11T21:56:55.782Z,6.45
2023-03-11T21:59:25.391Z,6.90
2023-03-11T22:01:52.683Z,6.85
2023-03-11T22:04:19.590Z,6.43
2023-03-11T22:06:46.310Z,6.50
2023-03-11T22:09:13.120Z,6.70
2023-03-11T22:11:40.053Z,7.22
2023-03-11T22:14:06.947Z,6.72
2023-03-11T22:16:33.973Z,7.00
2023-03-11T22:19:00.904Z,6.82
2023-03-11T22:21:27.667Z,7.63
2023-03-11T22:23:54.412Z,6.60
2023-03-11T22:26:21.121Z,6.28
2023-03-11T22:28:47.988Z,6.80
2023-03-11T22:31:15.514Z,7.43
2023-03-11T22:33:42.384Z,6.80
2023-03-11T22:36:09.789Z,6.55
2023-03-11T22:38:36.941Z,7.35
2023-03-11T22:41:07.577Z,6.70
2023-03-11T22:43:36.192Z,8.05
2023-03-11T22:46:05.300Z,8.10
2023-03-11T22:48:33.778Z,7.78
2023-03-11T22:51:00.857Z,8.30
2023-03-11T22:53:27.894Z,8.52
2023-03-11T22:55:54.686Z,8.13
2023-03-11T22:58:21.614Z,9.18
2023-03-11T23:00:48.702Z,8.27
2023-03-11T23:03:15.587Z,8.05
2023-03-11T23:05:42.754Z,8.30
2023-03-11T23:08:12.581Z,8.45
2023-03-11T23:10:41.923Z,8.02
2023-03-11T23:13:08.918Z,9.85
2023-03-11T23:15:36.075Z,8.57
2023-03-11T23:18:02.807Z,8.25
2023-03-11T23:20:29.443Z,8.68
2023-03-11T23:22:56.117Z,7.35
2023-03-11T23:25:22.908Z,8.52
2023-03-11T23:27:49.610Z,8.25
2023-03-11T23:30:17.151Z,8.98
2023-03-11T23:32:45.296Z,8.27
2023-03-11T23:35:12.766Z,9.32
2023-03-11T23:37:39.807Z,10.10
2023-03-11T23:40:09.418Z,8.50
2023-03-11T23:42:36.172Z,9.30
2023-03-11T23:45:03.653Z,8.98
2023-03-11T23:47:30.418Z,8.77
2023-03-11T23:49:57.195Z,8.73
2023-03-11T23:52:24.403Z,8.45
2023-03-11T23:54:51.107Z,8.88
2023-03-11T23:57:18.011Z,8.40
2023-03-11T23:59:44.747Z,6.88
